Latest Weather Observations for Wilcannia Airport

IDN60801

Issued at 5:52 pm EST Thursday 18 July 2019 (issued every 10 minutes, with the page automatically refreshed every 10 minutes)

About weather observations | Map of weather stations | Latest weather observations for NSW | Other Formats
Station Details ID: 046012 Name: WILCANNIA AERODROME AWS Lat: -31.52 Lon: 143.38 Height: 94.3 m
Data from the previous 72 hours. | See also: Recent months at Wilcannia Airport
Date/Time
EST
Temp
°C
App
Temp
°C
Dew
Point
°C
Rel
Hum
%
Delta-T
°C
Wind Press
QNH
hPa
Press
MSL
hPa
Rain since
9am
mm
Dir  Spd
km/h
Gust
km/h
Spd
kts
Gust
kts
18/05:30pm 13.8 10.6 3.3 49 4.7 NW 9 13 5 7 1020.6 1020.7 0.0
18/05:00pm 15.3 11.8 3.5 45 5.4 NW 11 13 6 7 1020.6 1020.7 0.0
18/04:30pm 16.0 12.9 3.8 44 5.7 WNW 9 13 5 7 1020.3 1020.4 0.0
18/04:00pm 16.0 12.9 3.8 44 5.6 WNW 9 17 5 9 1020.3 1020.4 0.0
18/03:30pm 16.0 13.4 4.1 45 5.6 WNW 7 13 4 7 1020.3 1020.4 0.0
18/03:00pm 15.9 12.5 4.0 45 5.5 NW 11 20 6 11 1020.4 1020.5 0.0
18/02:30pm 15.6 12.6 4.3 47 5.3 NW 9 15 5 8 1020.7 1020.8 0.0
18/02:00pm 15.1 12.2 4.8 50 4.8 S 9 17 5 9 1020.9 1021.0 0.0
18/01:30pm 15.2 12.3 4.6 49 5.0 WSW 9 19 5 10 1021.1 1021.2 0.0
18/01:00pm 14.9 12.1 5.1 52 4.6 W 9 13 5 7 1021.6 1021.7 0.0
18/12:30pm 13.8 10.9 4.9 55 4.2 SW 9 17 5 9 1022.1 1022.2 0.0
18/12:00pm 13.5 10.9 5.9 60 3.6 SW 9 13 5 7 1022.7 1022.9 0.0
18/11:30am 12.8 10.1 5.7 62 3.3 SW 9 15 5 8 1023.1 1023.3 0.0
18/11:00am 12.2 8.7 5.4 63 3.2 SW 13 17 7 9 1023.4 1023.6 0.0
18/10:30am 11.3 8.1 5.2 66 2.8 SW 11 15 6 8 1023.8 1024.0 0.0
18/10:00am 10.5 6.9 5.1 69 2.5 SW 13 17 7 9 1023.7 1023.9 0.0
18/09:30am 9.1 5.3 4.1 71 2.2 SW 13 17 7 9 1023.5 1023.7 0.0
18/09:00am 8.1 4.3 3.8 74 1.9 WSW 13 17 7 9 1023.3 1023.5 0.0
18/08:30am 6.8 3.2 3.2 78 1.5 W 11 13 6 7 1023.1 1023.3 0.0
18/08:00am 4.1 0.4 2.1 87 0.8 WNW 11 13 6 7 1022.7 1022.9 0.0
18/07:30am 2.4 -1.9 1.1 91 0.5 WNW 13 13 7 7 1022.6 1022.8 0.0
18/07:00am 2.1 -1.5 0.5 89 0.6 WNW 9 11 5 6 1022.3 1022.4 0.0
18/06:30am 2.7 -1.2 1.1 89 0.6 W 11 13 6 7 1021.9 1022.0 0.0
18/06:00am 2.9 -1.0 1.3 89 0.6 W 11 13 6 7 1021.7 1021.8 0.0
18/05:30am 3.0 -0.9 1.4 89 0.6 W 11 13 6 7 1021.5 1021.6 0.0
18/05:00am 3.3 -0.9 1.7 89 0.6 W 13 15 7 8 1021.5 1021.6 0.0
18/04:30am 3.7 -0.8 2.1 89 0.6 W 15 15 8 8 1021.6 1021.7 0.0
18/04:00am 3.9 -0.2 2.3 89 0.6 WNW 13 15 7 8 1021.7 1021.8 0.0
18/03:30am 3.6 -0.5 2.0 89 0.6 WNW 13 13 7 7 1021.8 1021.9 0.0
18/03:00am 4.2 0.5 2.4 88 0.7 WSW 11 11 6 6 1021.9 1022.0 0.0
18/02:30am 4.3 0.7 2.7 89 0.7 WSW 11 13 6 7 1021.7 1021.8 0.0
18/02:00am 4.2 0.9 2.4 88 0.7 WSW 9 11 5 6 1021.7 1021.8 0.0
18/01:30am 4.6 1.6 2.3 85 0.9 WSW 7 9 4 5 1021.9 1022.0 0.0
18/01:00am 5.8 2.2 3.0 82 1.2 WSW 11 13 6 7 1021.9 1022.0 0.0
18/12:30am 6.6 3.2 3.8 82 1.2 WSW 11 13 6 7 1022.1 1022.2 0.0
18/12:00am 6.8 3.0 3.9 82 1.2 WSW 13 15 7 8 1022.1 1022.2 0.0
 
Date/Time
EST
Temp
°C
App
Temp
°C
Dew
Point
°C
Rel
Hum
%
Delta-T
°C
Wind Press
QNH
hPa
Press
MSL
hPa
Rain since
9am
mm
Dir  Spd
km/h
Gust
km/h
Spd
kts
Gust
kts
17/11:30pm 7.4 3.3 4.5 82 1.3 WSW 15 19 8 10 1022.3 1022.4 0.0
17/11:00pm 7.1 4.1 3.9 80 1.4 W 9 9 5 5 1021.9 1022.0 0.0
17/10:30pm 7.4 4.8 4.4 81 1.3 W 7 9 4 5 1021.8 1021.9 0.0
17/10:00pm 7.5 4.9 4.1 79 1.5 WSW 7 9 4 5 1021.7 1021.8 0.0
17/09:30pm 8.8 5.9 4.6 75 1.9 WSW 9 9 5 5 1021.7 1021.8 0.0
17/09:00pm 9.2 6.0 5.0 75 1.9 W 11 13 6 7 1021.5 1021.6 0.0
17/08:30pm 9.1 5.8 4.7 74 2.0 W 11 15 6 8 1021.4 1021.5 0.0
17/08:00pm 10.0 6.8 5.2 72 2.2 WNW 11 13 6 7 1021.2 1021.3 0.0
17/07:30pm 11.1 7.6 5.6 69 2.6 NW 13 13 7 7 1021.0 1021.1 0.0
17/07:00pm 11.7 8.6 5.6 66 2.8 NW 11 13 6 7 1020.9 1021.0 0.0
17/06:30pm 12.3 8.9 5.7 64 3.1 NW 13 13 7 7 1020.8 1020.9 0.0
17/06:00pm 13.0 9.8 5.2 59 3.6 WNW 11 11 6 6 1020.8 1020.9 0.0
17/05:30pm 15.0 11.4 5.2 52 4.6 W 13 19 7 10 1020.7 1020.8 0.0
17/05:00pm 16.1 11.8 5.1 48 5.2 WNW 17 24 9 13 1020.7 1020.8 0.0
17/04:30pm 16.4 11.6 4.8 46 5.5 W 19 24 10 13 1020.7 1020.8 0.0
17/04:00pm 16.7 11.6 4.1 43 5.9 WSW 20 28 11 15 1021.0 1021.1 0.0
17/03:30pm 16.8 12.0 4.8 45 5.7 WSW 19 24 10 13 1021.0 1021.1 0.0
17/03:00pm 16.9 12.6 5.2 46 5.6 W 17 24 9 13 1021.4 1021.5 0.0
17/02:30pm 16.5 12.6 5.5 48 5.3 W 15 24 8 13 1021.5 1021.6 0.0
17/02:00pm 15.7 11.3 4.7 48 5.2 WSW 17 24 9 13 1021.8 1021.9 0.0
17/01:30pm 15.3 11.4 5.2 51 4.8 W 15 20 8 11 1022.4 1022.5 0.0
17/01:00pm 15.4 11.6 5.6 52 4.7 W 15 20 8 11 1023.1 1023.3 0.0
17/12:30pm 14.8 11.4 5.9 55 4.3 W 13 24 7 13 1023.8 1024.0 0.0
17/12:00pm 14.4 11.3 5.7 56 4.1 W 11 22 6 12 1024.5 1024.6 0.0
17/11:30am 14.2 11.9 5.6 56 4.1 NW 7 15 4 8 1024.8 1024.9 0.0
17/11:00am 13.3 10.4 4.5 55 4.0 W 9 15 5 8 1025.1 1025.2 0.0
17/10:30am 13.2 10.4 5.1 58 3.8 WNW 9 15 5 8 1025.2 1025.3 0.0
17/10:00am 12.9 10.2 5.8 62 3.3 NW 9 13 5 7 1025.1 1025.2 0.0
17/09:30am 11.7 8.7 6.0 68 2.7 WNW 11 13 6 7 1025.1 1025.2 0.0
17/09:00am 10.4 7.7 5.6 72 2.2 WNW 9 11 5 6 1025.2 1025.3 0.0
17/08:30am 8.2 5.8 5.3 82 1.3 WNW 7 9 4 5 1025.0 1025.1 0.0
17/08:00am 5.5 2.1 4.2 91 0.6 WNW 11 13 6 7 1024.8 1024.9 0.0
17/07:30am 4.3 2.8 3.0 91 0.5 CALM 0 0 0 0 1024.5 1024.6 0.0
17/07:00am 4.4 2.9 3.2 92 0.5 CALM 0 0 0 0 1024.4 1024.5 0.0
17/06:30am 4.4 2.9 3.2 92 0.5 CALM 0 0 0 0 1024.4 1024.5 0.0
17/06:00am 3.0 0.5 1.4 89 0.6 SW 4 6 2 3 1024.5 1024.6 0.0
17/05:30am 3.8 1.3 1.5 85 0.9 S 4 7 2 4 1024.5 1024.6 0.0
17/05:00am 4.5 1.6 1.4 80 1.2 S 6 6 3 3 1024.6 1024.7 0.0
17/04:30am 6.6 3.7 2.5 75 1.7 S 7 9 4 5 1024.6 1024.7 0.0
17/04:00am 8.7 6.0 3.9 72 2.1 SSW 7 9 4 5 1025.0 1025.1 0.0
17/03:30am 9.9 7.3 4.3 68 2.5 SSW 7 11 4 6 1025.3 1025.4 0.0
17/03:00am 11.0 6.6 4.7 65 2.8 SSW 17 24 9 13 1025.6 1025.7 0.0
17/02:30am 11.0 7.0 5.1 67 2.7 SSW 15 19 8 10 1025.9 1026.0 0.0
17/02:00am 11.3 7.8 5.6 68 2.6 SSW 13 19 7 10 1026.0 1026.1 0.0
17/01:30am 11.4 7.6 5.7 68 2.7 SW 15 20 8 11 1026.0 1026.1 0.0
17/01:00am 11.6 7.8 5.9 68 2.7 SW 15 20 8 11 1026.1 1026.2 0.0
17/12:30am 11.7 8.3 6.0 68 2.7 SW 13 26 7 14 1026.3 1026.4 0.0
17/12:00am 11.9 8.6 6.2 68 2.7 SSW 13 19 7 10 1026.5 1026.6 0.0
 
Date/Time
EST
Temp
°C
App
Temp
°C
Dew
Point
°C
Rel
Hum
%
Delta-T
°C
Wind Press
QNH
hPa
Press
MSL
hPa
Rain since
9am
mm
Dir  Spd
km/h
Gust
km/h
Spd
kts
Gust
kts
16/11:30pm 12.0 7.9 6.1 67 2.8 SSW 17 22 9 12 1026.7 1026.8 0.0
16/11:00pm 11.9 7.8 6.2 68 2.7 SSW 17 24 9 13 1026.7 1026.8 0.0
16/10:30pm 12.1 8.1 6.8 70 2.5 SSW 17 26 9 14 1026.9 1027.0 0.0
16/10:00pm 11.9 9.2 7.2 73 2.3 SW 11 15 6 8 1027.1 1027.2 0.0
16/09:30pm 11.8 8.8 7.5 75 2.1 SW 13 19 7 10 1027.1 1027.2 0.0
16/09:00pm 11.2 8.2 7.7 79 1.7 SSW 13 17 7 9 1027.0 1027.1 0.0
16/08:30pm 10.8 8.1 7.5 80 1.6 WSW 11 15 6 8 1026.8 1026.9 0.0
16/08:00pm 10.8 8.1 7.3 79 1.7 SW 11 13 6 7 1026.7 1026.8 0.0
16/07:30pm 11.1 8.0 7.4 78 1.8 SW 13 17 7 9 1026.5 1026.6 0.0
16/07:00pm 10.3 7.2 7.2 81 1.5 SSW 13 15 7 8 1026.4 1026.5 0.0
16/06:30pm 10.3 7.4 6.5 77 1.8 SSW 11 13 6 7 1026.1 1026.2 0.0
16/06:00pm 11.6 8.8 6.9 73 2.2 SSW 11 13 6 7 1025.8 1025.9 0.0
16/05:30pm 13.4 10.3 7.4 67 2.9 SSW 13 17 7 9 1025.6 1025.7 0.0
16/05:00pm 14.5 11.1 7.5 63 3.4 SSW 15 20 8 11 1025.6 1025.7 0.0
16/04:30pm 15.0 11.6 7.5 61 3.7 SSW 15 22 8 12 1025.6 1025.7 0.0
16/04:00pm 15.3 11.5 7.6 60 3.8 SW 17 22 9 12 1025.5 1025.6 0.0
16/03:30pm 15.2 11.4 7.5 60 3.8 SSW 17 24 9 13 1025.6 1025.7 0.0
16/03:00pm 15.0 10.8 7.5 61 3.7 SSW 19 26 10 14 1025.9 1026.0 0.0
16/02:30pm 14.6 10.9 7.9 64 3.4 S 17 28 9 15 1026.1 1026.2 0.0
16/02:00pm 14.6 10.2 7.4 62 3.5 SSW 20 28 11 15 1026.3 1026.4 0.0
16/01:30pm 14.1 10.8 8.1 67 3.0 SSW 15 22 8 12 1026.7 1026.8 0.0
16/01:00pm 13.5 9.7 7.7 68 2.8 SSW 17 24 9 13 1027.1 1027.2 0.0
16/12:30pm 13.4 10.3 8.7 73 2.4 SSW 15 22 8 12 1027.6 1027.7 0.0
16/12:00pm 12.0 8.0 8.1 77 1.9 SW 19 26 10 14 1028.3 1028.4 0.0
16/11:30am 12.1 8.1 8.4 78 1.8 SSW 19 28 10 15 1028.6 1028.7 0.0
16/11:00am 11.9 8.2 7.8 76 2.0 SW 17 24 9 13 1028.7 1028.8 0.0
16/10:30am 11.5 7.8 7.8 78 1.8 SSW 17 24 9 13 1028.8 1028.9 0.0
16/10:00am 10.5 6.7 7.6 82 1.4 SW 17 20 9 11 1028.8 1028.9 0.0
16/09:30am 10.5 6.2 7.2 80 1.6 SSW 19 28 10 15 1028.6 1028.7 0.0
16/09:00am 10.7 7.2 7.2 79 1.7 SSW 15 19 8 10 1028.4 1028.5 0.0
16/08:30am 10.4 7.7 7.5 82 1.4 SW 11 15 6 8 1028.3 1028.4 0.0
16/08:00am 10.0 7.6 7.1 82 1.4 SW 9 13 5 7 1028.0 1028.1 0.0
16/07:30am 9.7 7.2 6.6 81 1.5 SW 9 15 5 8 1027.8 1027.9 0.0
16/07:00am 9.8 6.9 6.5 80 1.5 SSW 11 13 6 7 1027.6 1027.7 0.0
16/06:30am 9.7 6.8 6.4 80 1.5 SW 11 13 6 7 1027.3 1027.4 0.0
16/06:00am 9.6 7.0 6.3 80 1.5 SW 9 13 5 7 1026.9 1027.0 0.0
16/05:30am 9.7 6.8 6.4 80 1.5 SSW 11 13 6 7 1026.7 1026.8 0.0
16/05:00am 9.6 6.7 6.3 80 1.5 SSW 11 15 6 8 1026.7 1026.8 0.0
16/04:30am 9.1 6.1 6.2 82 1.3 SW 11 15 6 8 1026.6 1026.7 0.0
16/04:00am 8.5 6.2 5.8 83 1.2 SW 7 9 4 5 1026.6 1026.7 0.0
16/03:30am 8.3 6.2 5.6 83 1.2 SW 6 11 3 6 1026.6 1026.7 0.0
16/03:00am 7.9 5.5 5.4 84 1.1 SW 7 11 4 6 1026.5 1026.6 0.0
16/02:30am 7.0 4.1 4.8 86 1.0 WSW 9 13 5 7 1026.7 1026.8 0.0
16/02:00am 6.1 2.8 4.6 90 0.6 SSW 11 13 6 7 1026.8 1026.9 0.0
16/01:30am 5.0 1.0 3.0 87 0.8 SW 13 13 7 7 1026.9 1027.0 0.0
16/01:00am 5.1 1.6 3.4 89 0.7 SW 11 13 6 7 1027.1 1027.2 0.0
16/12:30am 5.4 2.2 3.3 86 0.9 SW 9 11 5 6 1027.4 1027.5 0.0
16/12:00am 5.9 2.4 3.4 84 1.0 SW 11 13 6 7 1027.6 1027.7 0.0
 
Date/Time
EST
Temp
°C
App
Temp
°C
Dew
Point
°C
Rel
Hum
%
Delta-T
°C
Wind Press
QNH
hPa
Press
MSL
hPa
Rain since
9am
mm
Dir  Spd
km/h
Gust
km/h
Spd
kts
Gust
kts
15/11:30pm 6.4 2.6 3.7 83 1.1 WSW 13 13 7 7 1027.9 1028.0 0.0
15/11:00pm 6.1 2.6 3.3 82 1.2 WSW 11 13 6 7 1027.9 1028.0 0.0
15/10:30pm 6.4 3.2 3.0 79 1.4 W 9 11 5 6 1027.7 1027.8 0.0
15/10:00pm 7.3 4.2 3.7 78 1.5 WSW 9 13 5 7 1027.7 1027.8 0.0
15/09:30pm 7.1 3.2 3.3 77 1.6 SW 13 15 7 8 1027.7 1027.8 0.0
15/09:00pm 7.9 4.4 3.4 73 1.9 SW 11 13 6 7 1027.7 1027.8 0.0
15/08:30pm 9.4 6.0 3.8 68 2.5 SSW 11 13 6 7 1027.5 1027.6 0.0
15/08:00pm 10.7 6.9 4.0 63 3.0 SSW 13 17 7 9 1027.4 1027.5 0.0
15/07:30pm 11.7 7.2 4.2 60 3.4 SSW 17 24 9 13 1027.2 1027.3 0.0
15/07:00pm 12.3 7.9 4.5 59 3.5 S 17 22 9 12 1027.1 1027.2 0.0
15/06:30pm 12.5 7.7 4.5 58 3.7 SSW 19 28 10 15 1026.9 1027.0 0.0
15/06:00pm 12.5 6.7 4.2 57 3.7 S 24 32 13 17 1026.8 1026.9 0.0

Other formats

Comma delimited format used in spreadsheet applications
http://www.bom.gov.au/fwo/IDN60801/IDN60801.95695.axf

JavaScript Object Notation format (JSON) in row-major order
http://www.bom.gov.au/fwo/IDN60801/IDN60801.95695.json

Data quality

Most of these data are generated automatically and are frequently updated. Quality checks on data are not normally performed. It is possible for incorrect values to appear. Refer to information at About Latest Weather Observations and please check the disclaimer before using these data.